createdAt,value
2023-02-04T01:31:12.170Z,4.30
2023-02-04T01:34:14.110Z,4.20
2023-02-04T01:37:16.032Z,3.50
2023-02-04T01:40:18.040Z,3.20
2023-02-04T01:43:20.084Z,3.90
2023-02-04T01:46:24.253Z,3.00
2023-02-04T01:49:26.059Z,3.50
2023-02-04T01:52:28.055Z,3.60
2023-02-04T01:55:32.285Z,2.60
2023-02-04T01:58:35.056Z,2.60
2023-02-04T02:01:57.132Z,3.20
2023-02-04T02:04:59.117Z,3.40
2023-02-04T02:08:05.095Z,2.60
2023-02-04T02:11:07.104Z,3.00
2023-02-04T02:14:09.107Z,2.70
2023-02-04T02:17:11.180Z,2.40
2023-02-04T02:23:32.358Z,2.10
2023-02-04T02:26:34.160Z,2.50
2023-02-04T02:29:36.113Z,2.50
2023-02-04T02:32:38.133Z,2.70
2023-02-04T02:35:42.567Z,2.40
2023-02-04T02:38:46.704Z,2.50
2023-02-04T02:41:49.177Z,3.10
2023-02-04T02:44:52.172Z,2.70
2023-02-04T02:47:55.141Z,2.50
2023-02-04T02:50:58.204Z,2.50
2023-02-04T02:54:00.191Z,2.90
2023-02-04T02:57:02.197Z,2.20
2023-02-04T03:00:05.174Z,2.40
2023-02-04T03:03:15.216Z,2.90
2023-02-04T03:06:37.228Z,2.40
2023-02-04T03:09:39.168Z,2.30
2023-02-04T03:12:41.167Z,2.10
2023-02-04T03:15:43.256Z,2.20
2023-02-04T03:18:45.241Z,2.10
2023-02-04T03:21:48.206Z,2.10
2023-02-04T03:27:53.260Z,1.80
2023-02-04T03:31:02.650Z,2.50
2023-02-04T03:34:05.440Z,2.10
2023-02-04T03:37:08.257Z,2.20
2023-02-04T03:40:10.284Z,2.70
2023-02-04T03:43:13.301Z,2.20
2023-02-04T03:46:08.294Z,2.10
2023-02-04T03:49:10.436Z,2.60
2023-02-04T03:52:13.249Z,2.50
2023-02-04T03:55:17.248Z,2.40
2023-02-04T03:58:20.295Z,2.60
2023-02-04T04:04:24.533Z,2.10
2023-02-04T04:07:27.454Z,2.60
2023-02-04T04:10:31.571Z,2.50
2023-02-04T04:13:34.407Z,2.40
2023-02-04T04:16:38.591Z,2.40
2023-02-04T04:19:43.325Z,3.00
2023-02-04T04:22:49.291Z,2.80
2023-02-04T04:25:51.321Z,2.80
2023-02-04T04:28:55.320Z,3.10
2023-02-04T04:31:58.425Z,2.80
2023-02-04T04:35:00.430Z,3.10
2023-02-04T04:38:02.348Z,3.10
2023-02-04T04:41:04.308Z,2.60
2023-02-04T04:44:06.352Z,3.70
2023-02-04T04:47:08.773Z,3.30
2023-02-04T04:50:10.345Z,3.60
2023-02-04T04:53:14.682Z,2.60
2023-02-04T04:56:16.703Z,2.90
2023-02-04T04:59:18.402Z,2.60
2023-02-04T05:02:20.390Z,3.30
2023-02-04T05:05:22.369Z,2.90
2023-02-04T05:08:25.462Z,2.90
2023-02-04T05:11:28.508Z,2.70
2023-02-04T05:14:31.409Z,3.00
2023-02-04T05:17:33.417Z,2.80
2023-02-04T05:20:35.470Z,3.10
2023-02-04T05:23:37.457Z,2.90
2023-02-04T05:26:39.372Z,3.60
2023-02-04T05:29:42.399Z,3.10
2023-02-04T05:32:44.516Z,3.00
2023-02-04T05:35:49.891Z,4.20
2023-02-04T05:38:54.540Z,3.20
2023-02-04T05:41:57.411Z,4.90
2023-02-04T05:44:59.519Z,3.40
2023-02-04T05:51:04.495Z,3.30
2023-02-04T05:54:07.543Z,3.00
2023-02-04T05:57:10.491Z,3.70
2023-02-04T06:00:13.193Z,3.30
2023-02-04T06:03:15.464Z,3.40
2023-02-04T06:06:18.518Z,4.00
2023-02-04T06:09:20.581Z,3.80
2023-02-04T06:12:22.527Z,3.20
2023-02-04T06:15:24.468Z,3.30
2023-02-04T06:18:29.518Z,3.30
2023-02-04T06:21:31.487Z,3.60
2023-02-04T06:24:36.956Z,3.20
2023-02-04T06:27:38.573Z,3.20
2023-02-04T06:30:40.582Z,3.90
2023-02-04T06:33:46.596Z,3.30
2023-02-04T06:36:53.585Z,3.10
2023-02-04T06:39:55.529Z,3.10
2023-02-04T06:42:57.589Z,3.60
2023-02-04T06:46:04.585Z,3.10
2023-02-04T06:49:07.599Z,3.30
2023-02-04T06:52:11.998Z,4.10
2023-02-04T06:55:13.564Z,3.70
2023-02-04T06:58:17.526Z,3.50
2023-02-04T07:01:20.429Z,3.40
2023-02-04T07:04:22.982Z,3.30
2023-02-04T07:07:26.876Z,3.10
2023-02-04T07:10:28.580Z,3.50
2023-02-04T07:13:40.587Z,3.10
2023-02-04T07:16:42.568Z,2.80
2023-02-04T07:19:45.600Z,2.60
2023-02-04T07:22:47.685Z,2.20
2023-02-04T07:28:53.578Z,2.60
2023-02-04T07:31:57.827Z,2.30
2023-02-04T07:34:59.594Z,2.20
2023-02-04T07:38:04.928Z,2.00
2023-02-04T07:41:07.648Z,2.40
2023-02-04T07:44:09.655Z,2.20
2023-02-04T07:47:30.160Z,1.80
2023-02-04T07:50:37.651Z,1.90
2023-02-04T07:53:44.530Z,1.80
2023-02-04T07:56:47.740Z,2.60
2023-02-04T07:59:51.756Z,2.20
2023-02-04T08:02:58.067Z,2.20
2023-02-04T08:06:09.845Z,2.40
2023-02-04T08:09:15.758Z,2.90
2023-02-04T08:12:20.652Z,2.80
2023-02-04T08:15:22.727Z,2.10
2023-02-04T08:18:37.879Z,1.90
2023-02-04T08:21:42.169Z,1.90
2023-02-04T08:24:44.933Z,1.60
2023-02-04T08:27:51.826Z,2.10
2023-02-04T08:31:21.797Z,1.90
2023-02-04T08:34:30.041Z,2.60
2023-02-04T08:37:37.307Z,1.90
2023-02-04T08:40:39.759Z,2.00
2023-02-04T08:46:46.824Z,2.30
2023-02-04T08:49:49.720Z,2.20
2023-02-04T08:52:57.764Z,1.90
2023-02-04T08:55:59.866Z,2.00
2023-02-04T08:59:02.755Z,2.50
2023-02-04T09:02:10.871Z,2.10
2023-02-04T09:05:15.561Z,2.60
2023-02-04T09:08:16.802Z,2.00
2023-02-04T09:11:18.801Z,2.30
2023-02-04T09:14:22.874Z,2.30
2023-02-04T09:17:24.783Z,2.10
2023-02-04T09:20:31.089Z,2.20
2023-02-04T09:23:33.832Z,1.80
2023-02-04T09:26:35.938Z,1.70
2023-02-04T09:29:37.840Z,2.20
2023-02-04T09:32:41.833Z,2.30
2023-02-04T09:35:43.861Z,2.20
2023-02-04T09:38:45.962Z,2.20
2023-02-04T09:41:47.995Z,2.00
2023-02-04T09:47:52.878Z,1.90
2023-02-04T09:50:54.889Z,1.80
2023-02-04T09:53:56.926Z,2.10
2023-02-04T09:56:59.060Z,1.90
2023-02-04T10:00:00.878Z,1.80
2023-02-04T10:03:03.969Z,1.80
2023-02-04T10:06:07.131Z,2.30
2023-02-04T10:09:09.836Z,1.70
2023-02-04T10:12:11.913Z,1.70
2023-02-04T10:15:17.878Z,1.80
2023-02-04T10:18:20.802Z,1.80
2023-02-04T10:21:34.912Z,1.60
2023-02-04T10:24:37.893Z,2.00
2023-02-04T10:27:40.995Z,2.50
2023-02-04T10:30:44.935Z,2.90
2023-02-04T10:33:47.918Z,2.40
2023-02-04T10:36:50.956Z,2.20
2023-02-04T10:39:58.978Z,2.80
2023-02-04T10:43:02.932Z,2.60
2023-02-04T10:46:10.940Z,3.20
2023-02-04T10:49:14.699Z,3.30
2023-02-04T10:52:17.013Z,3.10
2023-02-04T10:55:20.989Z,3.20
2023-02-04T10:58:27.041Z,2.90
2023-02-04T11:01:28.990Z,2.90
2023-02-04T11:04:31.019Z,3.40
2023-02-04T11:07:33.055Z,3.10
2023-02-04T11:13:52.991Z,2.60
2023-02-04T11:17:05.086Z,2.90
2023-02-04T11:20:06.962Z,3.10
2023-02-04T11:23:09.998Z,2.60
2023-02-04T11:26:21.045Z,2.60
2023-02-04T11:29:30.250Z,2.70
2023-02-04T11:32:43.083Z,2.60
2023-02-04T11:35:46.694Z,2.50
2023-02-04T11:38:51.050Z,2.30
2023-02-04T11:41:58.072Z,2.70
2023-02-04T11:45:13.116Z,2.50
2023-02-04T11:48:18.136Z,2.50
2023-02-04T11:51:27.005Z,2.80
2023-02-04T11:54:31.123Z,2.80
2023-02-04T11:57:35.506Z,2.20
2023-02-04T12:03:41.118Z,2.70
2023-02-04T12:06:47.094Z,2.20
2023-02-04T12:10:15.709Z,1.90
2023-02-04T12:13:30.257Z,1.80
2023-02-04T12:16:34.089Z,1.50
2023-02-04T12:19:39.157Z,1.90
2023-02-04T12:22:41.129Z,1.20
2023-02-04T12:25:43.047Z,0.90
2023-02-04T12:28:45.126Z,1.20
2023-02-04T12:31:47.182Z,1.10
2023-02-04T12:34:50.128Z,1.90
2023-02-04T12:37:54.068Z,2.20
2023-02-04T12:40:59.137Z,1.60
2023-02-04T12:44:02.086Z,2.20
2023-02-04T12:47:04.201Z,1.80
2023-02-04T12:50:06.160Z,1.80
2023-02-04T12:53:11.124Z,1.90
2023-02-04T12:56:13.194Z,1.90
2023-02-04T12:59:08.218Z,1.80
2023-02-04T13:02:10.230Z,1.80
2023-02-04T13:05:15.245Z,1.40
2023-02-04T13:08:10.186Z,1.40
2023-02-04T13:11:12.208Z,1.70
2023-02-04T13:14:15.214Z,1.70
2023-02-04T13:17:17.315Z,1.90
2023-02-04T13:20:19.189Z,1.50
2023-02-04T13:23:21.195Z,1.70
2023-02-04T13:26:23.211Z,1.50
2023-02-04T13:29:25.182Z,1.50
2023-02-04T13:32:27.219Z,1.90
2023-02-04T13:35:30.471Z,2.00
2023-02-04T13:38:33.307Z,1.50
2023-02-04T13:41:36.241Z,1.90
2023-02-04T13:44:38.406Z,2.40
2023-02-04T13:47:40.306Z,2.30
2023-02-04T13:50:42.255Z,1.90
2023-02-04T13:53:44.249Z,1.80
2023-02-04T13:56:47.258Z,1.50
2023-02-04T13:59:49.255Z,1.70
2023-02-04T14:02:51.248Z,1.80
2023-02-04T14:05:56.269Z,1.60
2023-02-04T14:08:58.269Z,1.50
2023-02-04T14:11:53.344Z,1.80
2023-02-04T14:14:55.241Z,1.60
2023-02-04T14:17:57.332Z,1.50
2023-02-04T14:24:02.300Z,1.40
2023-02-04T14:27:04.340Z,1.70
2023-02-04T14:30:07.400Z,2.10
2023-02-04T14:33:09.321Z,2.00
2023-02-04T14:36:11.286Z,1.90
2023-02-04T14:39:13.525Z,2.00
2023-02-04T14:42:15.320Z,2.00
2023-02-04T14:45:22.372Z,2.00
2023-02-04T14:48:24.356Z,2.10
2023-02-04T14:51:26.372Z,1.90
2023-02-04T14:54:28.379Z,1.60
2023-02-04T15:00:33.797Z,1.80
2023-02-04T15:03:38.689Z,1.90
2023-02-04T15:06:42.699Z,1.80
2023-02-04T15:09:45.392Z,2.00
2023-02-04T15:12:47.402Z,2.10
2023-02-04T15:15:51.374Z,2.60
2023-02-04T15:18:53.422Z,2.60
2023-02-04T15:24:57.407Z,1.90
2023-02-04T15:27:59.407Z,2.20
2023-02-04T15:31:01.517Z,2.60
2023-02-04T15:34:04.753Z,2.90
2023-02-04T15:37:07.450Z,2.70
2023-02-04T15:43:28.424Z,2.70
2023-02-04T15:46:30.418Z,2.50
2023-02-04T15:49:25.444Z,3.10
2023-02-04T15:52:24.155Z,2.70
2023-02-04T15:55:27.433Z,2.50
2023-02-04T15:58:29.444Z,2.80
2023-02-04T16:01:31.440Z,2.70
2023-02-04T16:04:33.476Z,3.00
2023-02-04T16:07:35.437Z,2.70
2023-02-04T16:10:37.558Z,2.80
2023-02-04T16:16:41.486Z,3.40
2023-02-04T16:19:43.488Z,3.00
2023-02-04T16:22:45.518Z,2.60
2023-02-04T16:25:48.504Z,2.80
2023-02-04T16:31:56.606Z,2.00
2023-02-04T16:34:59.493Z,3.20
2023-02-04T16:38:03.050Z,2.70
2023-02-04T16:41:05.614Z,3.70
2023-02-04T16:44:07.580Z,3.00
2023-02-04T16:47:14.272Z,2.90
2023-02-04T16:50:17.661Z,2.90
2023-02-04T16:56:18.591Z,2.50
2023-02-04T16:59:22.716Z,3.40
2023-02-04T17:02:27.641Z,2.70
2023-02-04T17:05:31.809Z,2.70
2023-02-04T17:08:33.565Z,2.70
2023-02-04T17:11:38.588Z,3.10
2023-02-04T17:14:41.578Z,2.60
2023-02-04T17:17:45.556Z,2.70
2023-02-04T17:20:50.212Z,2.60
2023-02-04T17:23:57.663Z,2.20
2023-02-04T17:26:54.017Z,2.70
2023-02-04T17:29:42.602Z,1.70
2023-02-04T17:32:45.583Z,1.80
2023-02-04T17:35:47.665Z,1.60
2023-02-04T17:38:52.735Z,2.00
2023-02-04T17:41:54.825Z,2.20
2023-02-04T17:45:01.714Z,1.70
2023-02-04T17:48:07.718Z,2.10
2023-02-04T17:51:09.648Z,1.60
2023-02-04T17:54:14.701Z,1.70
2023-02-04T17:57:29.653Z,1.60
2023-02-04T18:00:36.386Z,2.60
2023-02-04T18:03:40.663Z,1.80
2023-02-04T18:06:45.127Z,1.70
2023-02-04T18:09:49.131Z,2.00
2023-02-04T18:12:51.769Z,1.60
2023-02-04T18:18:56.924Z,1.90
2023-02-04T18:21:59.733Z,1.40
2023-02-04T18:25:03.703Z,1.80
2023-02-04T18:28:05.818Z,1.60
2023-02-04T18:34:10.881Z,2.10
2023-02-04T18:37:39.812Z,1.80
2023-02-04T18:40:42.733Z,1.80
2023-02-04T18:43:56.760Z,2.00
2023-02-04T18:47:00.764Z,2.40
2023-02-04T18:50:03.992Z,2.00
2023-02-04T18:53:03.657Z,1.90
2023-02-04T18:56:12.368Z,1.60
2023-02-04T18:59:15.013Z,2.10
2023-02-04T19:05:52.751Z,1.70
2023-02-04T19:08:57.679Z,1.50
2023-02-04T19:12:07.771Z,1.60
2023-02-04T19:15:11.868Z,1.50
2023-02-04T19:18:21.068Z,1.50
2023-02-04T19:21:36.229Z,1.50
2023-02-04T19:24:52.152Z,1.30
2023-02-04T19:27:53.336Z,2.50
2023-02-04T19:31:02.925Z,2.00
2023-02-04T19:34:04.801Z,1.40
2023-02-04T19:37:07.840Z,1.90
2023-02-04T19:40:09.849Z,1.90
2023-02-04T19:43:37.232Z,2.20
2023-02-04T19:46:40.827Z,2.00
2023-02-04T19:49:35.835Z,2.10
2023-02-04T19:52:49.851Z,2.20
2023-02-04T19:56:05.592Z,1.70
2023-02-04T19:59:07.933Z,2.00
2023-02-04T20:02:29.905Z,1.80
2023-02-04T20:05:35.876Z,1.70
2023-02-04T20:09:00.175Z,1.70
2023-02-04T20:12:19.461Z,1.80
2023-02-04T20:15:26.961Z,1.60
2023-02-04T20:18:17.941Z,1.70
2023-02-04T20:21:25.931Z,2.10
2023-02-04T20:24:30.062Z,2.10
2023-02-04T20:27:42.360Z,2.00
2023-02-04T20:30:44.940Z,2.50
2023-02-04T20:34:01.315Z,1.60
2023-02-04T20:37:09.074Z,3.00
2023-02-04T20:40:31.276Z,2.30
2023-02-04T20:43:47.079Z,1.90
2023-02-04T20:46:50.032Z,1.80
2023-02-04T20:50:00.912Z,2.10
2023-02-04T20:53:05.856Z,1.60
2023-02-04T20:56:12.928Z,1.60
2023-02-04T20:59:39.950Z,2.50
2023-02-04T21:02:42.958Z,1.70
2023-02-04T21:05:44.986Z,1.70
2023-02-04T21:08:49.418Z,2.10
2023-02-04T21:11:51.974Z,1.50
2023-02-04T21:17:56.940Z,1.70
2023-02-04T21:21:02.013Z,1.90
2023-02-04T21:24:05.047Z,1.60
2023-02-04T21:27:07.059Z,1.70
2023-02-04T21:30:09.133Z,1.70
2023-02-04T21:33:11.030Z,1.60
2023-02-04T21:36:15.393Z,1.90
2023-02-04T21:42:21.195Z,2.00
2023-02-04T21:45:24.055Z,1.90
2023-02-04T21:48:27.046Z,1.80
2023-02-04T21:51:29.143Z,1.70
2023-02-04T21:54:32.032Z,1.80
2023-02-04T21:57:35.049Z,1.70
2023-02-04T22:00:37.079Z,1.90
2023-02-04T22:03:39.164Z,1.90
2023-02-04T22:06:36.129Z,1.80
2023-02-04T22:09:41.079Z,1.70
2023-02-04T22:12:43.080Z,1.40
2023-02-04T22:15:46.111Z,2.40
2023-02-04T22:18:49.071Z,2.10
2023-02-04T22:21:57.151Z,1.80
2023-02-04T22:25:01.195Z,2.00
2023-02-04T22:28:03.574Z,2.10
2023-02-04T22:31:05.564Z,2.60
2023-02-04T22:34:07.238Z,2.50
2023-02-04T22:37:10.120Z,2.60
2023-02-04T22:40:14.122Z,2.60
2023-02-04T22:43:16.164Z,2.70
2023-02-04T22:46:18.234Z,2.90
2023-02-04T22:49:21.192Z,2.50
2023-02-04T22:52:23.247Z,2.70
2023-02-04T22:58:31.198Z,2.70
2023-02-04T23:01:35.643Z,2.30
2023-02-04T23:04:37.164Z,2.80
2023-02-04T23:07:39.426Z,2.60
2023-02-04T23:14:01.168Z,3.70
2023-02-04T23:17:07.124Z,2.60
2023-02-04T23:20:13.505Z,2.60
2023-02-04T23:23:25.267Z,2.30
2023-02-04T23:26:28.409Z,2.60
2023-02-04T23:29:30.174Z,3.80
2023-02-04T23:32:34.169Z,2.60
2023-02-04T23:35:39.072Z,2.10
2023-02-04T23:38:41.214Z,2.70
2023-02-04T23:41:43.188Z,2.40
2023-02-04T23:44:45.212Z,2.30
2023-02-04T23:47:47.237Z,2.40
2023-02-04T23:50:49.379Z,2.40
2023-02-04T23:53:55.235Z,2.40
2023-02-04T23:56:58.206Z,2.20
